首页
METAR-TAF:

METAR-TAF

机场 :

安卡拉Güvercinlik, 土耳其

纬度: 39-56N, 经度: 032-45E, 海拔: 819米

当前天气观测

该预报发布于12小时和38分钟前的14:17 UTC
风速4节,风向西南,在西转西南之间变化
温度 18°C
湿度 49%
气压 1015 hPa
能见度10公里或以上
少量云层高于2500英尺, 积雨云.
多云层高于3500英尺

METAR: LTAB 311417Z 22004KT 170V240 9999 FEW025CB BKN035 18/07 Q1015 RESHRA NOSIG RMK RWY06 19003KT 150V220

时间: 05:55 (02:55 UTC)

预报

该预报发布于1小时和15分钟前的01:40 UTC
预报有效从01日的 03点(UTC)到 01日的 12点(UTC)
风速2节,风向多变
能见度10公里或以上
散云层高于4000英尺
多云层高于10000英尺
短暂存在
从 01日的 09点(UTC)到 01日的 12点(UTC)
风速12节,风向西转西南
少量云层高于3000英尺, 积雨云.
多云层高于3500英尺
小阵雨

TAF: LTAB 010140Z 0103/0112 VRB02KT 9999 SCT040 BKN100 TEMPO 0109/0112 24012KT -SHRA FEW030CB BKN035

超过4000个机场的气象观测和天气预报(METAR&TAF报告)。

可查询的气象台以黄色和红色小点在地图上表示。

将鼠标移到小点上方,可查看气象台名称。

然后点击查看天气观测和预报。

如需切换地图:点击带黑十字的绿色按钮放大地图;点击带横线的绿色按钮缩小地图;或者点击绿色箭头查看邻近地区的地图。


METAR-TAF: